UDCOD weather

Al Casale
Codroipo (UD), Friuli-Venezia Giulia, Italy

Public forecast

Using degrees Celsius for public forecast. Weather courtesy of forecast.io.

METAR (pilot weather report)

Closest report is Rivolto Air Base, 5.2 nm (9.7 km) E. Retrieved 2019/09/19 08:55 UTC (1 hour ago):

LIPI 190855Z 05020KT 9999 FEW090 21/00 Q1020 RMK SCT VIS MIN 9999 WIND THR06 08018KT WIND THR24 08020KT BLU

TAF (pilot weather forecast)

Forecast is more than 12 hours old.

Closest forecast is Rivolto Air Base, 5.2 nm (9.7 km) E. Retrieved 2017/11/16 12:24 UTC (2 years ago):

TAF TAF LIPI 161100Z 1612/1624 08013KT CAVOK BECMG 1616/1618 VRB05KT 9999 FEW040 SCT090